EJU73DX LFLL-EGKK
Flight info
| Callsign | EJU73DX |
|---|---|
| Flight time | 1h 7m |
| Altitude | 36000 |
| Route | BUSIL DCT AMORO DCT MOMIL DCT BAGBI DCT SIZZA DCT LAULY DCT BRY DCT CLM DCT KOPOR DCT KESAX DCT KUNAV |
| Aircraft | A320/M-SDE3FGHIRWY/LB1 |
Departure
| Time | 2026-05-05 21:42 |
|---|---|
| Airport | Lyon Saint-Exupéry Airport (LFLL) |
Arrival
| Time | 2026-05-05 22:49 |
|---|---|
| Airport | London Gatwick Airport (EGKK) |
| Time | Latitude | Longitude | Altitude | Speed | Heading |
|---|---|---|---|---|---|
| 2026-05-05 21:16 | 45.71342 | 5.08256 | 803 ft | 0 kts | 195° |
| 2026-05-05 21:30 | 45.71346 | 5.08258 | 803 ft | 2 kts | 193° |
| 2026-05-05 21:30 | 45.71362 | 5.08264 | 802 ft | 2 kts | 194° |
| 2026-05-05 21:30 | 45.71378 | 5.08270 | 802 ft | 2 kts | 195° |
| 2026-05-05 21:31 | 45.71394 | 5.08276 | 802 ft | 2 kts | 192° |
| 2026-05-05 21:31 | 45.71410 | 5.08274 | 803 ft | 2 kts | 133° |
| 2026-05-05 21:31 | 45.71417 | 5.08253 | 803 ft | 2 kts | 105° |
| 2026-05-05 21:31 | 45.71420 | 5.08235 | 803 ft | 1 kts | 104° |
| 2026-05-05 21:32 | 45.71421 | 5.08234 | 803 ft | 0 kts | 104° |
| 2026-05-05 21:33 | 45.71420 | 5.08235 | 803 ft | 1 kts | 104° |
| 2026-05-05 21:33 | 45.71411 | 5.08289 | 803 ft | 6 kts | 104° |
| 2026-05-05 21:33 | 45.71409 | 5.08367 | 804 ft | 9 kts | 84° |
| 2026-05-05 21:33 | 45.71413 | 5.08429 | 806 ft | 6 kts | 84° |
| 2026-05-05 21:34 | 45.71430 | 5.08499 | 808 ft | 10 kts | 47° |
| 2026-05-05 21:34 | 45.71521 | 5.08516 | 803 ft | 19 kts | 356° |
| 2026-05-05 21:34 | 45.71645 | 5.08499 | 803 ft | 17 kts | 353° |
| 2026-05-05 21:34 | 45.71759 | 5.08487 | 802 ft | 16 kts | 356° |
| 2026-05-05 21:35 | 45.71866 | 5.08473 | 802 ft | 20 kts | 354° |
| 2026-05-05 21:35 | 45.72011 | 5.08455 | 802 ft | 21 kts | 355° |
| 2026-05-05 21:35 | 45.72145 | 5.08439 | 802 ft | 18 kts | 355° |
| 2026-05-05 21:35 | 45.72271 | 5.08424 | 800 ft | 17 kts | 356° |
| 2026-05-05 21:36 | 45.72378 | 5.08411 | 798 ft | 14 kts | 356° |
| 2026-05-05 21:36 | 45.72479 | 5.08398 | 796 ft | 14 kts | 354° |
| 2026-05-05 21:36 | 45.72583 | 5.08385 | 795 ft | 23 kts | 354° |
| 2026-05-05 21:36 | 45.72755 | 5.08363 | 791 ft | 23 kts | 355° |
| 2026-05-05 21:37 | 45.72912 | 5.08345 | 790 ft | 22 kts | 355° |
| 2026-05-05 21:37 | 45.73066 | 5.08328 | 787 ft | 22 kts | 356° |
| 2026-05-05 21:37 | 45.73217 | 5.08310 | 785 ft | 21 kts | 353° |
| 2026-05-05 21:37 | 45.73364 | 5.08293 | 782 ft | 21 kts | 353° |
| 2026-05-05 21:38 | 45.73509 | 5.08272 | 780 ft | 20 kts | 355° |
| 2026-05-05 21:38 | 45.73638 | 5.08256 | 779 ft | 17 kts | 354° |
| 2026-05-05 21:38 | 45.73748 | 5.08242 | 776 ft | 14 kts | 355° |
| 2026-05-05 21:38 | 45.73845 | 5.08232 | 776 ft | 18 kts | 356° |
| 2026-05-05 21:39 | 45.73974 | 5.08215 | 775 ft | 17 kts | 357° |
| 2026-05-05 21:39 | 45.74084 | 5.08235 | 772 ft | 14 kts | 11° |
| 2026-05-05 21:39 | 45.74174 | 5.08266 | 772 ft | 13 kts | 14° |
| 2026-05-05 21:39 | 45.74243 | 5.08287 | 772 ft | 8 kts | 11° |
| 2026-05-05 21:40 | 45.74294 | 5.08304 | 772 ft | 7 kts | 14° |
| 2026-05-05 21:40 | 45.74375 | 5.08332 | 771 ft | 22 kts | 14° |
| 2026-05-05 21:40 | 45.74521 | 5.08382 | 770 ft | 19 kts | 9° |
| 2026-05-05 21:40 | 45.74626 | 5.08431 | 767 ft | 14 kts | 41° |
| 2026-05-05 21:41 | 45.74644 | 5.08533 | 768 ft | 8 kts | 104° |
| 2026-05-05 21:41 | 45.74609 | 5.08596 | 769 ft | 8 kts | 157° |
| 2026-05-05 21:41 | 45.74522 | 5.08612 | 771 ft | 35 kts | 173° |
| 2026-05-05 21:41 | 45.74025 | 5.08675 | 774 ft | 105 kts | 175° |
| 2026-05-05 21:42 | 45.73117 | 5.08783 | 871 ft | 146 kts | 175° |
| 2026-05-05 21:42 | 45.72154 | 5.08897 | 1551 ft | 139 kts | 175° |
| 2026-05-05 21:42 | 45.71156 | 5.09028 | 2030 ft | 150 kts | 175° |
| 2026-05-05 21:42 | 45.70047 | 5.09188 | 2322 ft | 173 kts | 176° |
| 2026-05-05 21:43 | 45.68789 | 5.09336 | 2720 ft | 190 kts | 177° |
| 2026-05-05 21:43 | 45.67399 | 5.09493 | 3184 ft | 208 kts | 176° |
| 2026-05-05 21:43 | 45.66016 | 5.10111 | 3951 ft | 214 kts | 143° |
| 2026-05-05 21:43 | 45.65221 | 5.11900 | 4706 ft | 222 kts | 101° |
| 2026-05-05 21:44 | 45.65453 | 5.14072 | 5412 ft | 229 kts | 59° |
| 2026-05-05 21:44 | 45.66625 | 5.15584 | 6116 ft | 234 kts | 26° |
| 2026-05-05 21:44 | 45.68153 | 5.16506 | 6777 ft | 241 kts | 19° |
| 2026-05-05 21:44 | 45.69757 | 5.17288 | 7503 ft | 245 kts | 18° |
| 2026-05-05 21:45 | 45.71386 | 5.18063 | 8253 ft | 248 kts | 18° |
| 2026-05-05 21:45 | 45.73029 | 5.18876 | 9009 ft | 252 kts | 18° |
| 2026-05-05 21:45 | 45.74755 | 5.19277 | 9778 ft | 254 kts | 356° |
| 2026-05-05 21:45 | 45.76508 | 5.18841 | 10359 ft | 261 kts | 337° |
| 2026-05-05 21:46 | 45.78156 | 5.17621 | 10807 ft | 275 kts | 327° |
| 2026-05-05 21:46 | 45.79855 | 5.16187 | 11265 ft | 292 kts | 327° |
| 2026-05-05 21:46 | 45.81628 | 5.14697 | 11684 ft | 309 kts | 327° |
| 2026-05-05 21:46 | 45.83564 | 5.13076 | 12110 ft | 326 kts | 327° |
| 2026-05-05 21:47 | 45.85572 | 5.11395 | 12538 ft | 342 kts | 328° |
| 2026-05-05 21:47 | 45.87618 | 5.09680 | 13201 ft | 348 kts | 328° |
| 2026-05-05 21:47 | 45.89721 | 5.07920 | 13947 ft | 351 kts | 328° |
| 2026-05-05 21:47 | 45.91842 | 5.06146 | 14620 ft | 355 kts | 327° |
| 2026-05-05 21:48 | 45.93973 | 5.04329 | 15286 ft | 358 kts | 326° |
| 2026-05-05 21:48 | 45.96101 | 5.02439 | 15934 ft | 362 kts | 325° |
| 2026-05-05 21:48 | 45.98244 | 5.00495 | 16578 ft | 365 kts | 325° |
| 2026-05-05 21:48 | 46.00398 | 4.98525 | 17215 ft | 369 kts | 324° |
| 2026-05-05 21:49 | 46.02578 | 4.96532 | 17849 ft | 373 kts | 324° |
| 2026-05-05 21:49 | 46.04784 | 4.94521 | 18435 ft | 377 kts | 325° |
| 2026-05-05 21:49 | 46.07015 | 4.92493 | 18975 ft | 381 kts | 325° |
| 2026-05-05 21:49 | 46.09273 | 4.90448 | 19520 ft | 385 kts | 325° |
| 2026-05-05 21:50 | 46.11558 | 4.88384 | 20072 ft | 389 kts | 325° |
| 2026-05-05 21:50 | 46.13858 | 4.86303 | 20621 ft | 392 kts | 324° |
| 2026-05-05 21:50 | 46.16177 | 4.84201 | 21162 ft | 396 kts | 324° |
| 2026-05-05 21:50 | 46.18523 | 4.82070 | 21710 ft | 400 kts | 324° |
| 2026-05-05 21:51 | 46.20882 | 4.79921 | 22251 ft | 403 kts | 324° |
| 2026-05-05 21:51 | 46.23269 | 4.77747 | 22786 ft | 407 kts | 324° |
| 2026-05-05 21:51 | 46.25670 | 4.75559 | 23322 ft | 411 kts | 324° |
| 2026-05-05 21:51 | 46.28098 | 4.73348 | 23781 ft | 414 kts | 324° |
| 2026-05-05 21:52 | 46.33024 | 4.68891 | 24639 ft | 420 kts | 324° |
| 2026-05-05 21:52 | 46.35522 | 4.66670 | 25071 ft | 423 kts | 324° |
| 2026-05-05 21:52 | 46.38041 | 4.64444 | 25498 ft | 425 kts | 324° |
| 2026-05-05 21:53 | 46.40541 | 4.62231 | 25908 ft | 428 kts | 324° |
| 2026-05-05 21:53 | 46.43084 | 4.59973 | 26323 ft | 430 kts | 324° |
| 2026-05-05 21:53 | 46.45664 | 4.57750 | 26728 ft | 434 kts | 328° |
| 2026-05-05 21:53 | 46.48473 | 4.56037 | 27130 ft | 442 kts | 339° |
| 2026-05-05 21:54 | 46.51486 | 4.55018 | 27516 ft | 449 kts | 349° |
| 2026-05-05 21:54 | 46.54618 | 4.54742 | 27892 ft | 455 kts | 359° |
| 2026-05-05 21:54 | 46.57794 | 4.55044 | 28252 ft | 459 kts | 3° |
| 2026-05-05 21:54 | 46.60975 | 4.55554 | 28613 ft | 461 kts | 5° |
| 2026-05-05 21:55 | 46.64169 | 4.56198 | 28971 ft | 464 kts | 7° |
| 2026-05-05 21:55 | 46.67370 | 4.56900 | 29330 ft | 466 kts | 7° |
| 2026-05-05 21:55 | 46.70584 | 4.57605 | 29676 ft | 468 kts | 6° |
| 2026-05-05 21:55 | 46.73818 | 4.58277 | 30015 ft | 470 kts | 6° |
| 2026-05-05 21:56 | 46.77069 | 4.58795 | 30299 ft | 470 kts | 360° |
| 2026-05-05 21:56 | 46.80293 | 4.58645 | 30588 ft | 468 kts | 351° |
| 2026-05-05 21:56 | 46.83530 | 4.57789 | 30869 ft | 467 kts | 342° |
| 2026-05-05 21:56 | 46.86564 | 4.56318 | 31136 ft | 465 kts | 334° |
| 2026-05-05 21:57 | 46.89520 | 4.54400 | 31369 ft | 466 kts | 333° |
| 2026-05-05 21:57 | 46.92476 | 4.52472 | 31707 ft | 465 kts | 333° |
| 2026-05-05 21:57 | 46.95430 | 4.50554 | 32076 ft | 464 kts | 333° |
| 2026-05-05 21:57 | 46.98374 | 4.48645 | 32440 ft | 463 kts | 333° |
| 2026-05-05 21:58 | 47.01314 | 4.46738 | 32796 ft | 462 kts | 333° |
| 2026-05-05 21:58 | 47.04245 | 4.44828 | 33139 ft | 461 kts | 333° |
| 2026-05-05 21:58 | 47.07178 | 4.42907 | 33476 ft | 461 kts | 333° |
| 2026-05-05 21:58 | 47.10101 | 4.40985 | 33824 ft | 460 kts | 333° |
| 2026-05-05 21:59 | 47.13028 | 4.39061 | 34106 ft | 460 kts | 333° |
| 2026-05-05 21:59 | 47.15951 | 4.37141 | 34382 ft | 460 kts | 333° |
| 2026-05-05 21:59 | 47.18860 | 4.35226 | 34652 ft | 460 kts | 333° |
| 2026-05-05 21:59 | 47.21791 | 4.33293 | 34906 ft | 459 kts | 333° |
| 2026-05-05 22:00 | 47.24702 | 4.31369 | 35153 ft | 459 kts | 334° |
| 2026-05-05 22:00 | 47.27618 | 4.29439 | 35392 ft | 459 kts | 333° |
| 2026-05-05 22:00 | 47.30530 | 4.27515 | 35604 ft | 459 kts | 334° |
| 2026-05-05 22:00 | 47.33445 | 4.25591 | 35829 ft | 459 kts | 334° |
| 2026-05-05 22:01 | 47.36358 | 4.23666 | 35908 ft | 455 kts | 334° |
| 2026-05-05 22:01 | 47.42102 | 4.19861 | 35911 ft | 452 kts | 334° |
| 2026-05-05 22:02 | 47.47799 | 4.16061 | 35909 ft | 452 kts | 334° |
| 2026-05-05 22:02 | 47.53522 | 4.12238 | 35904 ft | 451 kts | 334° |
| 2026-05-05 22:03 | 47.59250 | 4.08413 | 35902 ft | 451 kts | 334° |
| 2026-05-05 22:03 | 47.64973 | 4.04587 | 35902 ft | 451 kts | 334° |
| 2026-05-05 22:04 | 47.70689 | 4.00757 | 35903 ft | 451 kts | 334° |
| 2026-05-05 22:04 | 47.76406 | 3.96913 | 35895 ft | 451 kts | 334° |
| 2026-05-05 22:05 | 47.82136 | 3.93057 | 35884 ft | 455 kts | 334° |
| 2026-05-05 22:05 | 47.87975 | 3.89114 | 35879 ft | 466 kts | 334° |
| 2026-05-05 22:06 | 47.93940 | 3.85070 | 35878 ft | 474 kts | 334° |
| 2026-05-05 22:06 | 47.99988 | 3.80960 | 35874 ft | 480 kts | 334° |
| 2026-05-05 22:07 | 48.06077 | 3.76809 | 35869 ft | 481 kts | 334° |
| 2026-05-05 22:07 | 48.12165 | 3.72656 | 35865 ft | 481 kts | 333° |
| 2026-05-05 22:08 | 48.17609 | 3.67115 | 35859 ft | 476 kts | 313° |
| 2026-05-05 22:08 | 48.22116 | 3.59841 | 35855 ft | 475 kts | 310° |
| 2026-05-05 22:09 | 48.26599 | 3.52557 | 35862 ft | 475 kts | 311° |
| 2026-05-05 22:09 | 48.31081 | 3.45258 | 35861 ft | 475 kts | 310° |
| 2026-05-05 22:10 | 48.35545 | 3.37949 | 35869 ft | 474 kts | 310° |
| 2026-05-05 22:10 | 48.40179 | 3.30896 | 35855 ft | 476 kts | 321° |
| 2026-05-05 22:11 | 48.45981 | 3.26096 | 35848 ft | 480 kts | 336° |
| 2026-05-05 22:11 | 48.52147 | 3.22192 | 35842 ft | 480 kts | 336° |
| 2026-05-05 22:12 | 48.58290 | 3.18264 | 35851 ft | 480 kts | 335° |
| 2026-05-05 22:12 | 48.64433 | 3.14318 | 35854 ft | 480 kts | 335° |
| 2026-05-05 22:13 | 48.70539 | 3.10388 | 35861 ft | 479 kts | 336° |
| 2026-05-05 22:13 | 48.76677 | 3.06439 | 35865 ft | 479 kts | 336° |
| 2026-05-05 22:14 | 48.82820 | 3.02473 | 35860 ft | 479 kts | 336° |
| 2026-05-05 22:14 | 48.88684 | 2.97735 | 35856 ft | 479 kts | 329° |
| 2026-05-05 22:15 | 48.94452 | 2.92678 | 35864 ft | 478 kts | 329° |
| 2026-05-05 22:15 | 49.00222 | 2.87615 | 35853 ft | 479 kts | 329° |
| 2026-05-05 22:16 | 49.05989 | 2.82546 | 35850 ft | 479 kts | 329° |
| 2026-05-05 22:16 | 49.11763 | 2.77472 | 35853 ft | 479 kts | 329° |
| 2026-05-05 22:17 | 49.17532 | 2.72380 | 35852 ft | 479 kts | 329° |
| 2026-05-05 22:17 | 49.23297 | 2.67276 | 35863 ft | 479 kts | 329° |
| 2026-05-05 22:18 | 49.29050 | 2.62162 | 35866 ft | 478 kts | 329° |
| 2026-05-05 22:18 | 49.34769 | 2.57056 | 35880 ft | 478 kts | 329° |
| 2026-05-05 22:19 | 49.40518 | 2.51928 | 35880 ft | 478 kts | 329° |
| 2026-05-05 22:19 | 49.46263 | 2.46789 | 35876 ft | 477 kts | 328° |
| 2026-05-05 22:20 | 49.51035 | 2.42411 | 35877 ft | 476 kts | 324° |
| 2026-05-05 22:20 | 49.56087 | 2.35973 | 35865 ft | 475 kts | 317° |
| 2026-05-05 22:21 | 49.61087 | 2.29327 | 35870 ft | 475 kts | 318° |
| 2026-05-05 22:21 | 49.66092 | 2.22675 | 35874 ft | 475 kts | 318° |
| 2026-05-05 22:22 | 49.71092 | 2.16019 | 35887 ft | 475 kts | 318° |
| 2026-05-05 22:22 | 49.76089 | 2.09336 | 35901 ft | 474 kts | 317° |
| 2026-05-05 22:23 | 49.81062 | 2.02648 | 35774 ft | 472 kts | 317° |
| 2026-05-05 22:23 | 49.83530 | 1.99328 | 35313 ft | 467 kts | 317° |
| 2026-05-05 22:23 | 49.85975 | 1.96036 | 34737 ft | 462 kts | 317° |
| 2026-05-05 22:23 | 49.88387 | 1.92786 | 34191 ft | 458 kts | 317° |
| 2026-05-05 22:24 | 49.90779 | 1.89561 | 33642 ft | 453 kts | 317° |
| 2026-05-05 22:24 | 49.93142 | 1.86364 | 33040 ft | 448 kts | 317° |
| 2026-05-05 22:24 | 49.95477 | 1.83202 | 32477 ft | 444 kts | 317° |
| 2026-05-05 22:24 | 49.97784 | 1.80069 | 31924 ft | 439 kts | 317° |
| 2026-05-05 22:25 | 50.00074 | 1.76958 | 31392 ft | 435 kts | 317° |
| 2026-05-05 22:25 | 50.02342 | 1.73878 | 30865 ft | 431 kts | 317° |
| 2026-05-05 22:25 | 50.04587 | 1.70824 | 30357 ft | 427 kts | 317° |
| 2026-05-05 22:25 | 50.06804 | 1.67800 | 29843 ft | 423 kts | 317° |
| 2026-05-05 22:26 | 50.09007 | 1.64798 | 29271 ft | 419 kts | 317° |
| 2026-05-05 22:26 | 50.11199 | 1.61826 | 28560 ft | 418 kts | 317° |
| 2026-05-05 22:26 | 50.13385 | 1.58866 | 27565 ft | 425 kts | 317° |
| 2026-05-05 22:26 | 50.15632 | 1.55824 | 26554 ft | 431 kts | 317° |
| 2026-05-05 22:27 | 50.17905 | 1.52736 | 25624 ft | 435 kts | 318° |
| 2026-05-05 22:27 | 50.20183 | 1.49636 | 24903 ft | 433 kts | 317° |
| 2026-05-05 22:27 | 50.22443 | 1.46551 | 24290 ft | 430 kts | 318° |
| 2026-05-05 22:27 | 50.24680 | 1.43491 | 23697 ft | 425 kts | 318° |
| 2026-05-05 22:28 | 50.26893 | 1.40468 | 23058 ft | 422 kts | 318° |
| 2026-05-05 22:28 | 50.29092 | 1.37460 | 22383 ft | 418 kts | 318° |
| 2026-05-05 22:28 | 50.31279 | 1.34466 | 21759 ft | 415 kts | 318° |
| 2026-05-05 22:28 | 50.33437 | 1.31503 | 21214 ft | 412 kts | 318° |
| 2026-05-05 22:29 | 50.35586 | 1.28549 | 20701 ft | 410 kts | 318° |
| 2026-05-05 22:29 | 50.37721 | 1.25615 | 20196 ft | 407 kts | 319° |
| 2026-05-05 22:29 | 50.39842 | 1.22700 | 19702 ft | 404 kts | 319° |
| 2026-05-05 22:29 | 50.41944 | 1.19798 | 19215 ft | 401 kts | 319° |
| 2026-05-05 22:30 | 50.44032 | 1.16914 | 18743 ft | 398 kts | 319° |
| 2026-05-05 22:30 | 50.46103 | 1.14046 | 18274 ft | 396 kts | 319° |
| 2026-05-05 22:30 | 50.48162 | 1.11190 | 17799 ft | 393 kts | 319° |
| 2026-05-05 22:30 | 50.50204 | 1.08358 | 17315 ft | 390 kts | 319° |
| 2026-05-05 22:31 | 50.52170 | 1.05445 | 16841 ft | 387 kts | 313° |
| 2026-05-05 22:31 | 50.53975 | 1.02400 | 16394 ft | 385 kts | 313° |
| 2026-05-05 22:31 | 50.55795 | 0.99331 | 15993 ft | 382 kts | 314° |
| 2026-05-05 22:31 | 50.57604 | 0.96280 | 15586 ft | 380 kts | 314° |
| 2026-05-05 22:32 | 50.59400 | 0.93248 | 15195 ft | 377 kts | 314° |
| 2026-05-05 22:32 | 50.61184 | 0.90234 | 14795 ft | 375 kts | 314° |
| 2026-05-05 22:32 | 50.62957 | 0.87237 | 14409 ft | 373 kts | 314° |
| 2026-05-05 22:32 | 50.64714 | 0.84262 | 14028 ft | 370 kts | 314° |
| 2026-05-05 22:33 | 50.66460 | 0.81301 | 13639 ft | 367 kts | 314° |
| 2026-05-05 22:33 | 50.68178 | 0.78331 | 13231 ft | 365 kts | 312° |
| 2026-05-05 22:33 | 50.69810 | 0.75284 | 12850 ft | 363 kts | 310° |
| 2026-05-05 22:33 | 50.71385 | 0.72184 | 12485 ft | 361 kts | 309° |
| 2026-05-05 22:34 | 50.72930 | 0.69077 | 12124 ft | 359 kts | 309° |
| 2026-05-05 22:34 | 50.74463 | 0.65986 | 11767 ft | 356 kts | 309° |
| 2026-05-05 22:34 | 50.75993 | 0.62921 | 11412 ft | 354 kts | 309° |
| 2026-05-05 22:34 | 50.77521 | 0.59881 | 11064 ft | 352 kts | 309° |
| 2026-05-05 22:35 | 50.79024 | 0.56906 | 10710 ft | 337 kts | 309° |
| 2026-05-05 22:35 | 50.80444 | 0.54105 | 10371 ft | 317 kts | 309° |
| 2026-05-05 22:35 | 50.81783 | 0.51465 | 10035 ft | 299 kts | 309° |
| 2026-05-05 22:35 | 50.83055 | 0.48955 | 9688 ft | 289 kts | 309° |
| 2026-05-05 22:36 | 50.84306 | 0.46488 | 9314 ft | 287 kts | 309° |
| 2026-05-05 22:36 | 50.85549 | 0.44037 | 8971 ft | 284 kts | 309° |
| 2026-05-05 22:36 | 50.86781 | 0.41609 | 8668 ft | 281 kts | 310° |
| 2026-05-05 22:36 | 50.88000 | 0.39201 | 8364 ft | 279 kts | 309° |
| 2026-05-05 22:37 | 50.89206 | 0.36814 | 8067 ft | 277 kts | 309° |
| 2026-05-05 22:37 | 50.90406 | 0.34429 | 7762 ft | 275 kts | 309° |
| 2026-05-05 22:37 | 50.91596 | 0.32061 | 7468 ft | 274 kts | 310° |
| 2026-05-05 22:37 | 50.92777 | 0.29710 | 7175 ft | 272 kts | 310° |
| 2026-05-05 22:38 | 50.93942 | 0.27389 | 7026 ft | 263 kts | 309° |
| 2026-05-05 22:38 | 50.94781 | 0.25217 | 7031 ft | 248 kts | 294° |
| 2026-05-05 22:38 | 50.95370 | 0.22721 | 7040 ft | 240 kts | 291° |
| 2026-05-05 22:38 | 50.95950 | 0.20237 | 7028 ft | 241 kts | 292° |
| 2026-05-05 22:39 | 50.96535 | 0.17744 | 7006 ft | 241 kts | 292° |
| 2026-05-05 22:39 | 50.97114 | 0.15281 | 6867 ft | 240 kts | 292° |
| 2026-05-05 22:39 | 50.97694 | 0.12809 | 6640 ft | 239 kts | 292° |
| 2026-05-05 22:39 | 50.98271 | 0.10339 | 6465 ft | 238 kts | 292° |
| 2026-05-05 22:40 | 50.98839 | 0.07873 | 6296 ft | 238 kts | 289° |
| 2026-05-05 22:40 | 50.99286 | 0.05313 | 6108 ft | 238 kts | 287° |
| 2026-05-05 22:40 | 50.99701 | 0.02807 | 5932 ft | 237 kts | 286° |
| 2026-05-05 22:40 | 51.00116 | 0.00284 | 5748 ft | 236 kts | 286° |
| 2026-05-05 22:41 | 51.00529 | -0.02245 | 5569 ft | 237 kts | 286° |
| 2026-05-05 22:41 | 51.00940 | -0.04769 | 5387 ft | 236 kts | 286° |
| 2026-05-05 22:41 | 51.01351 | -0.07291 | 5218 ft | 235 kts | 286° |
| 2026-05-05 22:41 | 51.01761 | -0.09795 | 5091 ft | 235 kts | 286° |
| 2026-05-05 22:42 | 51.02172 | -0.12309 | 4961 ft | 234 kts | 286° |
| 2026-05-05 22:42 | 51.02582 | -0.14815 | 4838 ft | 234 kts | 286° |
| 2026-05-05 22:42 | 51.02989 | -0.17315 | 4708 ft | 233 kts | 286° |
| 2026-05-05 22:42 | 51.03395 | -0.19808 | 4580 ft | 233 kts | 286° |
| 2026-05-05 22:43 | 51.03800 | -0.22298 | 4438 ft | 233 kts | 286° |
| 2026-05-05 22:43 | 51.04205 | -0.24795 | 4314 ft | 233 kts | 286° |
| 2026-05-05 22:43 | 51.04610 | -0.27279 | 4198 ft | 233 kts | 286° |
| 2026-05-05 22:43 | 51.05016 | -0.29776 | 4075 ft | 233 kts | 286° |
| 2026-05-05 22:44 | 51.05419 | -0.32266 | 3998 ft | 233 kts | 286° |
| 2026-05-05 22:44 | 51.05825 | -0.34761 | 4006 ft | 234 kts | 286° |
| 2026-05-05 22:44 | 51.06234 | -0.37264 | 4007 ft | 234 kts | 286° |
| 2026-05-05 22:44 | 51.06639 | -0.39746 | 4005 ft | 227 kts | 286° |
| 2026-05-05 22:45 | 51.07272 | -0.41903 | 3998 ft | 208 kts | 315° |
| 2026-05-05 22:45 | 51.08489 | -0.43079 | 4011 ft | 206 kts | 347° |
| 2026-05-05 22:45 | 51.09902 | -0.43134 | 3940 ft | 207 kts | 14° |
| 2026-05-05 22:45 | 51.11168 | -0.42071 | 3484 ft | 211 kts | 45° |
| 2026-05-05 22:46 | 51.11894 | -0.40061 | 2934 ft | 214 kts | 75° |
| 2026-05-05 22:46 | 51.12219 | -0.37745 | 2451 ft | 212 kts | 77° |
| 2026-05-05 22:46 | 51.12526 | -0.35496 | 2116 ft | 204 kts | 76° |
| 2026-05-05 22:46 | 51.12821 | -0.33374 | 1836 ft | 192 kts | 77° |
| 2026-05-05 22:47 | 51.13095 | -0.31409 | 1595 ft | 172 kts | 76° |
| 2026-05-05 22:47 | 51.13337 | -0.29666 | 1371 ft | 151 kts | 77° |
| 2026-05-05 22:47 | 51.13552 | -0.28122 | 1163 ft | 135 kts | 77° |
| 2026-05-05 22:47 | 51.13754 | -0.26674 | 984 ft | 134 kts | 76° |
| 2026-05-05 22:48 | 51.13954 | -0.25237 | 813 ft | 134 kts | 76° |
| 2026-05-05 22:48 | 51.14152 | -0.23788 | 658 ft | 134 kts | 76° |
| 2026-05-05 22:48 | 51.14357 | -0.22350 | 462 ft | 133 kts | 76° |
| 2026-05-05 22:48 | 51.14556 | -0.20916 | 292 ft | 132 kts | 75° |
| 2026-05-05 22:49 | 51.14749 | -0.19526 | 213 ft | 118 kts | 78° |
| 2026-05-05 22:49 | 51.14882 | -0.18545 | 206 ft | 65 kts | 79° |
| 2026-05-05 22:49 | 51.14956 | -0.18052 | 213 ft | 34 kts | 67° |
| 2026-05-05 22:49 | 51.15063 | -0.17786 | 207 ft | 16 kts | 44° |
| 2026-05-05 22:50 | 51.15157 | -0.17770 | 216 ft | 9 kts | 352° |
| 2026-05-05 22:50 | 51.15221 | -0.17781 | 205 ft | 10 kts | 2° |
| 2026-05-05 22:50 | 51.15264 | -0.17707 | 208 ft | 11 kts | 82° |
| 2026-05-05 22:50 | 51.15287 | -0.17578 | 205 ft | 13 kts | 75° |
| 2026-05-05 22:51 | 51.15303 | -0.17422 | 213 ft | 15 kts | 73° |
| 2026-05-05 22:51 | 51.15387 | -0.17388 | 207 ft | 12 kts | 346° |
| 2026-05-05 22:51 | 51.15472 | -0.17417 | 205 ft | 12 kts | 348° |
| 2026-05-05 22:51 | 51.15533 | -0.17437 | 207 ft | 9 kts | 348° |
| 2026-05-05 22:52 | 51.15599 | -0.17459 | 208 ft | 11 kts | 347° |
| 2026-05-05 22:52 | 51.15680 | -0.17490 | 208 ft | 13 kts | 347° |
| 2026-05-05 22:52 | 51.15751 | -0.17562 | 206 ft | 13 kts | 274° |
| 2026-05-05 22:52 | 51.15727 | -0.17633 | 209 ft | 6 kts | 182° |
| 2026-05-05 22:53 | 51.15687 | -0.17621 | 205 ft | 6 kts | 166° |
| 2026-05-05 22:53 | 51.15661 | -0.17612 | 208 ft | 1 kts | 167° |
| 2026-05-05 22:53 | 51.15658 | -0.17610 | 214 ft | 0 kts | 167° |
| 2026-05-05 22:53 | 51.15655 | -0.17609 | 214 ft | 0 kts | 167° |